createdAt,value
2019-03-17T00:03:29.121Z,60.58
2019-03-17T00:07:32.838Z,60.00
2019-03-17T00:11:36.457Z,60.10
2019-03-17T00:15:40.184Z,60.78
2019-03-17T00:19:43.853Z,60.19
2019-03-17T00:23:47.488Z,60.51
2019-03-17T00:27:51.422Z,60.10
2019-03-17T00:31:55.047Z,60.75
2019-03-17T00:35:58.703Z,59.96
2019-03-17T00:40:02.357Z,59.88
2019-03-17T00:44:06.104Z,60.20
2019-03-17T00:48:09.816Z,59.46
2019-03-17T00:52:13.547Z,59.40
2019-03-17T00:56:17.234Z,59.80
2019-03-17T01:00:21.085Z,59.52
2019-03-17T01:04:24.717Z,59.46
2019-03-17T01:08:28.423Z,59.47
2019-03-17T01:12:31.963Z,59.41
2019-03-17T01:16:35.645Z,59.47
2019-03-17T01:20:39.261Z,59.43
2019-03-17T01:24:42.867Z,59.45
2019-03-17T01:28:46.475Z,59.12
2019-03-17T01:32:50.104Z,59.28
2019-03-17T01:36:54.147Z,59.71
2019-03-17T01:40:57.817Z,58.92
2019-03-17T01:45:01.445Z,59.13
2019-03-17T01:49:05.152Z,59.37
2019-03-17T01:53:08.711Z,59.31
2019-03-17T01:57:12.403Z,59.01
2019-03-17T02:01:16.290Z,58.78
2019-03-17T02:05:22.355Z,59.21
2019-03-17T02:09:25.213Z,58.56
2019-03-17T02:13:29.034Z,58.50
2019-03-17T02:17:32.897Z,58.68
2019-03-17T02:21:36.653Z,59.25
2019-03-17T02:25:40.329Z,59.32
2019-03-17T02:29:44.013Z,59.53
2019-03-17T02:33:47.662Z,59.77
2019-03-17T02:37:51.493Z,59.64
2019-03-17T02:41:55.025Z,58.96
2019-03-17T02:46:02.598Z,59.74
2019-03-17T02:50:05.394Z,59.34
2019-03-17T02:54:09.145Z,58.80
2019-03-17T02:58:12.839Z,59.67
2019-03-17T03:02:16.452Z,58.96
2019-03-17T03:06:20.185Z,59.80
2019-03-17T03:10:23.877Z,59.13
2019-03-17T03:14:27.537Z,59.64
2019-03-17T03:18:31.180Z,59.20
2019-03-17T03:22:34.870Z,58.87
2019-03-17T03:26:41.492Z,58.79
2019-03-17T03:30:45.219Z,58.93
2019-03-17T03:34:49.118Z,59.15
2019-03-17T03:38:52.883Z,58.78
2019-03-17T03:42:56.670Z,58.69
2019-03-17T03:47:00.281Z,58.62
2019-03-17T03:51:04.309Z,58.57
2019-03-17T03:55:09.410Z,58.57
2019-03-17T03:59:16.019Z,58.61
2019-03-17T04:03:19.546Z,58.55
2019-03-17T04:07:23.167Z,58.45
2019-03-17T04:11:26.876Z,57.81
2019-03-17T04:15:30.544Z,58.22
2019-03-17T04:19:34.336Z,58.46
2019-03-17T04:23:38.072Z,58.29
2019-03-17T04:27:44.406Z,58.59
2019-03-17T04:31:47.963Z,58.55
2019-03-17T04:35:51.718Z,58.28
2019-03-17T04:39:55.276Z,58.19
2019-03-17T04:43:58.881Z,58.48
2019-03-17T04:48:02.589Z,58.49
2019-03-17T04:52:06.343Z,58.33
2019-03-17T04:56:09.956Z,57.89
2019-03-17T05:00:13.975Z,57.26
2019-03-17T05:04:17.622Z,58.34
2019-03-17T05:08:21.190Z,58.27
2019-03-17T05:12:24.839Z,58.23
2019-03-17T05:16:28.598Z,57.95
2019-03-17T05:20:32.149Z,58.44
2019-03-17T05:24:35.740Z,58.53
2019-03-17T05:28:39.332Z,58.43
2019-03-17T05:32:42.978Z,58.08
2019-03-17T05:36:46.629Z,57.79
2019-03-17T05:40:50.251Z,58.05
2019-03-17T05:44:53.958Z,58.12
2019-03-17T05:48:57.698Z,57.96
2019-03-17T05:53:01.415Z,58.67
2019-03-17T05:57:05.159Z,58.61
2019-03-17T06:01:08.835Z,58.46
2019-03-17T06:05:12.443Z,58.92
2019-03-17T06:09:16.116Z,59.36
2019-03-17T06:13:19.970Z,59.70
2019-03-17T06:17:23.841Z,60.47
2019-03-17T06:21:27.523Z,61.07
2019-03-17T06:25:31.474Z,61.57
2019-03-17T06:29:35.033Z,62.19
2019-03-17T06:33:38.895Z,63.27
2019-03-17T06:37:42.653Z,63.30
2019-03-17T06:41:46.348Z,63.18
2019-03-17T06:45:49.974Z,63.37
2019-03-17T06:49:53.659Z,63.35
2019-03-17T06:53:58.078Z,63.14
2019-03-17T06:58:01.650Z,62.65
2019-03-17T07:02:05.379Z,62.97
2019-03-17T07:06:09.006Z,62.58
2019-03-17T07:10:13.062Z,62.83
2019-03-17T07:14:17.267Z,63.12
2019-03-17T07:18:20.999Z,63.55
2019-03-17T07:22:25.028Z,64.24
2019-03-17T07:26:28.738Z,64.41
2019-03-17T07:30:32.353Z,63.76
2019-03-17T07:34:36.297Z,62.90
2019-03-17T07:38:40.182Z,62.93
2019-03-17T07:42:44.160Z,62.55
2019-03-17T07:46:47.755Z,62.58
2019-03-17T07:50:51.456Z,61.89
2019-03-17T07:54:55.216Z,61.56
2019-03-17T07:58:58.811Z,61.46
2019-03-17T08:03:02.403Z,61.60
2019-03-17T08:07:06.119Z,62.45
2019-03-17T08:11:09.938Z,62.45
2019-03-17T08:15:16.920Z,62.15
2019-03-17T08:19:20.574Z,62.15
2019-03-17T08:23:24.150Z,62.80
2019-03-17T08:27:27.846Z,62.49
2019-03-17T08:31:31.534Z,63.36
2019-03-17T08:35:35.258Z,63.42
2019-03-17T08:39:38.914Z,63.27
2019-03-17T08:43:53.717Z,64.23
2019-03-17T08:47:57.704Z,65.57
2019-03-17T08:51:53.407Z,67.27
2019-03-17T08:55:57.474Z,68.19
2019-03-17T09:00:01.276Z,68.83
2019-03-17T09:04:05.093Z,68.55
2019-03-17T09:08:08.721Z,68.67
2019-03-17T09:12:12.495Z,68.72
2019-03-17T09:16:16.286Z,68.16
2019-03-17T09:20:19.873Z,67.66
2019-03-17T09:24:23.487Z,67.46
2019-03-17T09:28:28.380Z,66.96
2019-03-17T09:32:33.010Z,66.50
2019-03-17T09:36:36.611Z,64.75
2019-03-17T09:40:40.812Z,66.49
2019-03-17T09:44:45.263Z,66.09
2019-03-17T09:48:48.947Z,66.00
2019-03-17T09:52:52.724Z,64.94
2019-03-17T09:56:56.377Z,65.70
2019-03-17T10:01:00.143Z,65.48
2019-03-17T10:05:04.735Z,64.59
2019-03-17T10:09:08.707Z,63.74
2019-03-17T10:13:12.475Z,61.45
2019-03-17T10:17:16.032Z,62.16
2019-03-17T10:21:19.743Z,61.91
2019-03-17T10:25:23.415Z,62.91
2019-03-17T10:29:27.071Z,61.35
2019-03-17T10:33:30.752Z,60.28
2019-03-17T10:37:34.332Z,58.96
2019-03-17T10:41:37.995Z,58.96
2019-03-17T10:45:41.625Z,58.30
2019-03-17T10:49:45.530Z,59.76
2019-03-17T10:53:49.344Z,60.82
2019-03-17T10:57:53.337Z,62.11
2019-03-17T11:01:56.954Z,61.05
2019-03-17T11:06:00.911Z,61.06
2019-03-17T11:10:06.601Z,61.22
2019-03-17T11:14:10.409Z,60.35
2019-03-17T11:18:13.972Z,58.58
2019-03-17T11:22:17.618Z,60.37
2019-03-17T11:26:21.260Z,57.66
2019-03-17T11:30:25.300Z,56.19
2019-03-17T11:34:28.956Z,57.27
2019-03-17T11:38:32.546Z,58.51
2019-03-17T11:42:36.170Z,56.11
2019-03-17T11:46:39.726Z,55.85
2019-03-17T11:50:43.492Z,56.02
2019-03-17T11:54:47.320Z,55.53
2019-03-17T11:58:50.949Z,55.27
2019-03-17T12:02:54.515Z,55.42
2019-03-17T12:06:58.062Z,56.22
2019-03-17T12:11:01.717Z,56.47
2019-03-17T12:15:11.186Z,56.61
2019-03-17T12:19:14.964Z,56.37
2019-03-17T12:23:18.623Z,55.11
2019-03-17T12:27:22.285Z,54.87
2019-03-17T12:31:25.956Z,55.96
2019-03-17T12:35:29.841Z,56.07
2019-03-17T12:39:33.537Z,56.50
2019-03-17T12:43:37.206Z,55.54
2019-03-17T12:47:40.899Z,54.93
2019-03-17T12:51:44.885Z,55.44
2019-03-17T12:55:48.420Z,55.38
2019-03-17T12:59:52.108Z,54.51
2019-03-17T13:03:55.908Z,53.41
2019-03-17T13:07:59.525Z,53.74
2019-03-17T13:12:03.691Z,53.65
2019-03-17T13:16:07.579Z,53.58
2019-03-17T13:20:21.378Z,53.45
2019-03-17T13:24:25.184Z,53.66
2019-03-17T13:28:28.755Z,52.79
2019-03-17T13:32:33.105Z,53.85
2019-03-17T13:36:37.047Z,53.33
2019-03-17T13:40:41.052Z,53.91
2019-03-17T13:44:45.310Z,53.50
2019-03-17T13:48:49.041Z,54.16
2019-03-17T13:52:53.999Z,55.28
2019-03-17T13:56:57.680Z,58.21
2019-03-17T14:01:01.443Z,65.17
2019-03-17T14:05:05.607Z,65.17
2019-03-17T14:09:09.585Z,66.31
2019-03-17T14:13:13.451Z,67.06
2019-03-17T14:17:17.429Z,67.06
2019-03-17T14:21:24.388Z,67.17
2019-03-17T14:25:32.656Z,67.82
2019-03-17T14:29:36.495Z,67.96
2019-03-17T14:33:40.218Z,67.10
2019-03-17T14:37:44.270Z,65.98
2019-03-17T14:41:48.286Z,65.23
2019-03-17T14:45:52.045Z,63.42
2019-03-17T14:49:56.073Z,63.56
2019-03-17T14:53:59.765Z,65.10
2019-03-17T14:58:03.486Z,65.07
2019-03-17T15:02:07.243Z,65.86
2019-03-17T15:06:10.890Z,65.77
2019-03-17T15:10:27.067Z,64.40
2019-03-17T15:14:30.623Z,64.48
2019-03-17T15:18:34.325Z,63.68
2019-03-17T15:22:37.958Z,63.80
2019-03-17T15:26:41.591Z,64.00
2019-03-17T15:31:00.470Z,62.92
2019-03-17T15:34:50.515Z,63.32
2019-03-17T15:38:54.062Z,64.43
2019-03-17T15:42:57.655Z,64.49
2019-03-17T15:47:01.342Z,64.52
2019-03-17T15:51:05.304Z,63.39
2019-03-17T15:55:11.462Z,63.76
2019-03-17T15:59:17.380Z,62.71
2019-03-17T16:03:21.269Z,64.12
2019-03-17T16:07:25.424Z,63.88
2019-03-17T16:11:31.103Z,63.52
2019-03-17T16:15:35.141Z,63.95
2019-03-17T16:19:38.750Z,64.01
2019-03-17T16:23:43.603Z,63.61
2019-03-17T16:27:47.303Z,64.46
2019-03-17T16:31:51.019Z,64.30
2019-03-17T16:35:54.641Z,64.55
2019-03-17T16:39:58.197Z,64.04
2019-03-17T16:44:01.766Z,63.92
2019-03-17T16:48:05.715Z,64.63
2019-03-17T16:52:09.430Z,65.31
2019-03-17T16:56:13.081Z,65.08
2019-03-17T17:00:19.445Z,65.18
2019-03-17T17:04:23.512Z,65.70
2019-03-17T17:08:27.288Z,65.57
2019-03-17T17:12:31.089Z,66.12
2019-03-17T17:16:35.006Z,66.01
2019-03-17T17:20:42.273Z,65.70
2019-03-17T17:24:45.948Z,64.42
2019-03-17T17:28:49.636Z,64.42
2019-03-17T17:32:53.238Z,64.70
2019-03-17T17:36:56.833Z,64.81
2019-03-17T17:41:00.430Z,65.12
2019-03-17T17:45:04.919Z,64.65
2019-03-17T17:49:08.484Z,63.78
2019-03-17T17:53:12.375Z,63.87
2019-03-17T17:57:15.992Z,64.25
2019-03-17T18:01:19.575Z,64.05
2019-03-17T18:05:23.168Z,63.63
2019-03-17T18:09:26.862Z,64.36
2019-03-17T18:13:30.463Z,63.89
2019-03-17T18:17:34.070Z,64.20
2019-03-17T18:21:37.803Z,64.36
2019-03-17T18:25:44.427Z,63.65
2019-03-17T18:29:48.371Z,63.46
2019-03-17T18:33:52.065Z,63.58
2019-03-17T18:37:55.780Z,63.77
2019-03-17T18:41:59.513Z,63.69
2019-03-17T18:46:03.133Z,63.87
2019-03-17T18:50:19.568Z,64.36
2019-03-17T18:54:15.470Z,64.36
2019-03-17T18:58:19.293Z,64.09
2019-03-17T19:02:22.962Z,63.92
2019-03-17T19:06:26.673Z,63.92
2019-03-17T19:10:31.429Z,63.46
2019-03-17T19:14:35.370Z,63.35
2019-03-17T19:18:39.076Z,63.12
2019-03-17T19:22:42.744Z,63.07
2019-03-17T19:26:46.390Z,62.78
2019-03-17T19:30:53.496Z,63.68
2019-03-17T19:35:01.579Z,64.10
2019-03-17T19:39:09.187Z,64.24
2019-03-17T19:43:13.296Z,64.17
2019-03-17T19:47:16.860Z,64.14
2019-03-17T19:51:20.528Z,63.97
2019-03-17T19:55:24.503Z,63.49
2019-03-17T19:59:28.576Z,63.29
2019-03-17T20:03:32.322Z,62.84
2019-03-17T20:07:36.445Z,61.81
2019-03-17T20:11:40.808Z,61.79
2019-03-17T20:15:44.625Z,61.40
2019-03-17T20:19:49.070Z,61.74
2019-03-17T20:23:53.074Z,61.74
2019-03-17T20:27:57.238Z,61.36
2019-03-17T20:32:01.363Z,62.16
2019-03-17T20:36:06.638Z,61.95
2019-03-17T20:40:13.558Z,61.87
2019-03-17T20:44:17.602Z,61.60
2019-03-17T20:48:21.683Z,61.44
2019-03-17T20:52:25.798Z,61.08
2019-03-17T20:56:30.047Z,61.45
2019-03-17T21:00:33.887Z,61.57
2019-03-17T21:04:37.835Z,61.82
2019-03-17T21:08:41.500Z,61.80
2019-03-17T21:12:45.361Z,61.71
2019-03-17T21:16:49.044Z,61.19
2019-03-17T21:20:52.565Z,61.53
2019-03-17T21:24:56.151Z,61.62
2019-03-17T21:28:59.822Z,61.73
2019-03-17T21:33:03.533Z,61.70
2019-03-17T21:37:07.159Z,62.01
2019-03-17T21:41:11.175Z,61.80
2019-03-17T21:45:15.157Z,62.23
2019-03-17T21:49:18.714Z,62.24
2019-03-17T21:53:22.384Z,62.19
2019-03-17T21:57:26.046Z,61.97
2019-03-17T22:01:29.671Z,62.04
2019-03-17T22:05:33.425Z,61.89
2019-03-17T22:09:37.040Z,61.46
2019-03-17T22:13:40.933Z,61.69
2019-03-17T22:17:44.597Z,61.40
2019-03-17T22:21:48.263Z,61.25
2019-03-17T22:25:51.835Z,61.49
2019-03-17T22:29:55.544Z,60.99
2019-03-17T22:33:59.169Z,60.75
2019-03-17T22:38:03.142Z,61.39
2019-03-17T22:42:07.040Z,61.39
2019-03-17T22:46:10.588Z,60.85
2019-03-17T22:50:18.767Z,60.85
2019-03-17T22:54:22.504Z,61.06
2019-03-17T22:58:26.187Z,60.58
2019-03-17T23:02:29.723Z,60.69
2019-03-17T23:06:33.406Z,60.22
2019-03-17T23:10:36.980Z,60.13
2019-03-17T23:14:40.622Z,59.90
2019-03-17T23:18:44.257Z,60.16
2019-03-17T23:22:47.957Z,59.88
2019-03-17T23:26:51.494Z,59.95
2019-03-17T23:30:55.038Z,59.92
2019-03-17T23:34:58.904Z,59.70
2019-03-17T23:39:02.821Z,60.20
2019-03-17T23:43:06.536Z,59.90
2019-03-17T23:47:10.339Z,60.18
2019-03-17T23:51:14.298Z,60.18
2019-03-17T23:55:17.966Z,60.12
2019-03-17T23:59:22.356Z,60.46
